Dinas Powys, United Kingdom
Current Conditions -  °F | °C
As of 8:50 AM on Wednesday 28 Jan 2015 (Local Time) from EGFF Reporting Station
Overcast Overcast  
Wind Chill: 40°   Ceiling: 2800
Heat Index: 48°   Visibility: 6mi
Dew Point: 45°   Wind: 29mph
Humidity: 87%   Direction: 270°W
Pressure: 29.65"   Gusts: 41mph
Location:  51.43°N, 3.21°W
Report Text: EGFF 280850Z AUTO 27025G36KT 9999 SCT003 BKN028 OVC043 09/07 Q1004 RERA
Loading
Personal Weather Stations






























Interactive Weather Map New forecast layout! Learn more

10-Day Weather Forecast

Advertisements
Track Severe Weather on mobile